sensor_id;sensor_type;location;lat;lon;timestamp;temperature;humidity
18839;DHT22;9548;56.920;14.804;2022-09-09T00:02:00;11.40;99.90
18839;DHT22;9548;56.920;14.804;2022-09-09T00:04:30;11.50;99.90
18839;DHT22;9548;56.920;14.804;2022-09-09T00:07:04;11.50;99.90
18839;DHT22;9548;56.920;14.804;2022-09-09T00:09:39;11.50;99.90
18839;DHT22;9548;56.920;14.804;2022-09-09T00:12:11;11.60;99.90
18839;DHT22;9548;56.920;14.804;2022-09-09T00:14:46;11.50;99.90
18839;DHT22;9548;56.920;14.804;2022-09-09T00:17:22;11.50;99.90
18839;DHT22;9548;56.920;14.804;2022-09-09T00:19:56;11.60;99.90
18839;DHT22;9548;56.920;14.804;2022-09-09T00:22:29;11.60;99.90
18839;DHT22;9548;56.920;14.804;2022-09-09T00:25:03;11.60;99.90
18839;DHT22;9548;56.920;14.804;2022-09-09T00:27:41;11.70;99.90
18839;DHT22;9548;56.920;14.804;2022-09-09T00:30:16;11.70;99.90
18839;DHT22;9548;56.920;14.804;2022-09-09T00:32:45;11.60;99.90
18839;DHT22;9548;56.920;14.804;2022-09-09T00:35:17;11.60;99.90
18839;DHT22;9548;56.920;14.804;2022-09-09T00:37:48;11.60;99.90
18839;DHT22;9548;56.920;14.804;2022-09-09T00:40:23;11.60;99.90
18839;DHT22;9548;56.920;14.804;2022-09-09T00:43:00;11.60;99.90
18839;DHT22;9548;56.920;14.804;2022-09-09T00:45:51;11.60;99.90
18839;DHT22;9548;56.920;14.804;2022-09-09T00:48:26;11.60;99.90
18839;DHT22;9548;56.920;14.804;2022-09-09T00:50:57;11.60;99.90
18839;DHT22;9548;56.920;14.804;2022-09-09T00:53:35;11.60;99.90
18839;DHT22;9548;56.920;14.804;2022-09-09T00:56:12;11.60;99.90
18839;DHT22;9548;56.920;14.804;2022-09-09T00:58:42;11.60;99.90
18839;DHT22;9548;56.920;14.804;2022-09-09T01:01:11;11.60;99.90
18839;DHT22;9548;56.920;14.804;2022-09-09T01:03:40;11.60;99.90
18839;DHT22;9548;56.920;14.804;2022-09-09T01:06:16;11.70;99.90
18839;DHT22;9548;56.920;14.804;2022-09-09T01:09:02;11.70;99.90
18839;DHT22;9548;56.920;14.804;2022-09-09T01:11:36;11.70;99.90
18839;DHT22;9548;56.920;14.804;2022-09-09T01:14:23;11.70;99.90
18839;DHT22;9548;56.920;14.804;2022-09-09T01:16:55;11.70;99.90
18839;DHT22;9548;56.920;14.804;2022-09-09T01:19:33;11.70;99.90
18839;DHT22;9548;56.920;14.804;2022-09-09T01:22:12;11.70;99.90
18839;DHT22;9548;56.920;14.804;2022-09-09T01:24:53;11.60;99.90
18839;DHT22;9548;56.920;14.804;2022-09-09T01:27:24;11.60;99.90
18839;DHT22;9548;56.920;14.804;2022-09-09T01:29:51;11.60;99.90
18839;DHT22;9548;56.920;14.804;2022-09-09T01:32:38;11.60;99.90
18839;DHT22;9548;56.920;14.804;2022-09-09T01:35:08;11.60;99.90
18839;DHT22;9548;56.920;14.804;2022-09-09T01:37:36;11.70;99.90
18839;DHT22;9548;56.920;14.804;2022-09-09T01:40:03;11.60;99.90
18839;DHT22;9548;56.920;14.804;2022-09-09T01:42:32;11.60;99.90
18839;DHT22;9548;56.920;14.804;2022-09-09T01:44:59;11.60;99.90
18839;DHT22;9548;56.920;14.804;2022-09-09T01:47:26;11.70;99.90
18839;DHT22;9548;56.920;14.804;2022-09-09T01:50:00;11.70;99.90
18839;DHT22;9548;56.920;14.804;2022-09-09T01:52:30;11.70;99.90
18839;DHT22;9548;56.920;14.804;2022-09-09T01:54:57;11.70;99.90
18839;DHT22;9548;56.920;14.804;2022-09-09T01:57:27;11.70;99.90
18839;DHT22;9548;56.920;14.804;2022-09-09T02:00:03;11.80;99.90
18839;DHT22;9548;56.920;14.804;2022-09-09T02:02:38;11.80;99.90
18839;DHT22;9548;56.920;14.804;2022-09-09T02:05:16;11.80;99.90
18839;DHT22;9548;56.920;14.804;2022-09-09T02:07:48;11.80;99.90
18839;DHT22;9548;56.920;14.804;2022-09-09T02:10:20;11.90;99.90
18839;DHT22;9548;56.920;14.804;2022-09-09T02:12:49;11.80;99.90
18839;DHT22;9548;56.920;14.804;2022-09-09T02:15:24;11.90;99.90
18839;DHT22;9548;56.920;14.804;2022-09-09T02:17:54;11.90;99.90
18839;DHT22;9548;56.920;14.804;2022-09-09T02:20:23;12.00;99.90
18839;DHT22;9548;56.920;14.804;2022-09-09T02:22:53;12.00;99.90
18839;DHT22;9548;56.920;14.804;2022-09-09T02:25:23;12.00;99.90
18839;DHT22;9548;56.920;14.804;2022-09-09T02:27:51;12.00;99.90
18839;DHT22;9548;56.920;14.804;2022-09-09T02:30:20;12.00;99.90
18839;DHT22;9548;56.920;14.804;2022-09-09T02:32:49;12.00;99.90
18839;DHT22;9548;56.920;14.804;2022-09-09T02:35:19;12.10;99.90
18839;DHT22;9548;56.920;14.804;2022-09-09T02:37:49;12.10;99.90
18839;DHT22;9548;56.920;14.804;2022-09-09T02:40:18;12.10;99.90
18839;DHT22;9548;56.920;14.804;2022-09-09T02:42:47;12.20;99.90
18839;DHT22;9548;56.920;14.804;2022-09-09T02:45:17;12.20;99.90
18839;DHT22;9548;56.920;14.804;2022-09-09T02:47:50;12.20;99.90
18839;DHT22;9548;56.920;14.804;2022-09-09T02:50:23;12.20;99.90
18839;DHT22;9548;56.920;14.804;2022-09-09T02:53:01;12.20;99.90
18839;DHT22;9548;56.920;14.804;2022-09-09T02:55:38;12.20;99.90
18839;DHT22;9548;56.920;14.804;2022-09-09T02:58:10;12.20;99.90
18839;DHT22;9548;56.920;14.804;2022-09-09T03:00:38;12.20;99.90
18839;DHT22;9548;56.920;14.804;2022-09-09T03:03:07;12.20;99.90
18839;DHT22;9548;56.920;14.804;2022-09-09T03:05:35;12.30;99.90
18839;DHT22;9548;56.920;14.804;2022-09-09T03:08:03;12.30;99.90
18839;DHT22;9548;56.920;14.804;2022-09-09T03:10:31;12.30;99.90
18839;DHT22;9548;56.920;14.804;2022-09-09T03:12:58;12.30;99.90
18839;DHT22;9548;56.920;14.804;2022-09-09T03:15:25;12.40;99.90
18839;DHT22;9548;56.920;14.804;2022-09-09T03:17:54;12.40;99.90
18839;DHT22;9548;56.920;14.804;2022-09-09T03:20:24;12.50;99.90
18839;DHT22;9548;56.920;14.804;2022-09-09T03:22:51;12.50;99.90
18839;DHT22;9548;56.920;14.804;2022-09-09T03:25:18;12.50;99.90
18839;DHT22;9548;56.920;14.804;2022-09-09T03:27:45;12.50;99.90
18839;DHT22;9548;56.920;14.804;2022-09-09T03:30:12;12.50;99.90
18839;DHT22;9548;56.920;14.804;2022-09-09T03:32:39;12.50;99.90
18839;DHT22;9548;56.920;14.804;2022-09-09T03:35:07;12.60;99.90
18839;DHT22;9548;56.920;14.804;2022-09-09T03:37:35;12.70;99.90
18839;DHT22;9548;56.920;14.804;2022-09-09T03:40:04;12.70;99.90
18839;DHT22;9548;56.920;14.804;2022-09-09T03:42:32;12.70;99.90
18839;DHT22;9548;56.920;14.804;2022-09-09T03:44:59;12.80;99.90
18839;DHT22;9548;56.920;14.804;2022-09-09T03:47:25;12.80;99.90
18839;DHT22;9548;56.920;14.804;2022-09-09T03:49:52;12.80;99.90
18839;DHT22;9548;56.920;14.804;2022-09-09T03:52:19;12.80;99.90
18839;DHT22;9548;56.920;14.804;2022-09-09T03:54:48;12.90;99.90
18839;DHT22;9548;56.920;14.804;2022-09-09T03:57:15;12.90;99.90
18839;DHT22;9548;56.920;14.804;2022-09-09T03:59:42;12.90;99.90
18839;DHT22;9548;56.920;14.804;2022-09-09T04:02:09;13.00;99.90
18839;DHT22;9548;56.920;14.804;2022-09-09T04:04:36;13.10;99.90
18839;DHT22;9548;56.920;14.804;2022-09-09T04:07:03;13.20;99.90
18839;DHT22;9548;56.920;14.804;2022-09-09T04:09:32;13.20;99.90
18839;DHT22;9548;56.920;14.804;2022-09-09T04:12:02;13.30;99.90
18839;DHT22;9548;56.920;14.804;2022-09-09T04:14:29;13.40;99.90
18839;DHT22;9548;56.920;14.804;2022-09-09T04:16:56;13.40;99.90
18839;DHT22;9548;56.920;14.804;2022-09-09T04:19:25;13.50;99.90
18839;DHT22;9548;56.920;14.804;2022-09-09T04:21:52;13.50;99.90
18839;DHT22;9548;56.920;14.804;2022-09-09T04:24:19;13.50;99.90
18839;DHT22;9548;56.920;14.804;2022-09-09T04:26:47;13.60;99.90
18839;DHT22;9548;56.920;14.804;2022-09-09T04:29:15;13.60;99.90
18839;DHT22;9548;56.920;14.804;2022-09-09T04:31:42;13.60;99.90
18839;DHT22;9548;56.920;14.804;2022-09-09T04:34:10;13.70;99.90
18839;DHT22;9548;56.920;14.804;2022-09-09T04:36:37;13.70;99.90
18839;DHT22;9548;56.920;14.804;2022-09-09T04:39:04;13.70;99.90
18839;DHT22;9548;56.920;14.804;2022-09-09T04:41:31;13.70;99.90
18839;DHT22;9548;56.920;14.804;2022-09-09T04:43:58;13.80;99.90
18839;DHT22;9548;56.920;14.804;2022-09-09T04:46:27;13.80;99.90
18839;DHT22;9548;56.920;14.804;2022-09-09T04:48:54;13.80;99.90
18839;DHT22;9548;56.920;14.804;2022-09-09T04:51:21;13.80;99.90
18839;DHT22;9548;56.920;14.804;2022-09-09T04:53:48;13.80;99.90
18839;DHT22;9548;56.920;14.804;2022-09-09T04:56:17;13.80;99.90
18839;DHT22;9548;56.920;14.804;2022-09-09T04:58:44;13.90;99.90
18839;DHT22;9548;56.920;14.804;2022-09-09T05:01:12;13.80;99.90
18839;DHT22;9548;56.920;14.804;2022-09-09T05:03:41;13.90;99.90
18839;DHT22;9548;56.920;14.804;2022-09-09T05:06:09;13.90;99.90
18839;DHT22;9548;56.920;14.804;2022-09-09T05:08:37;14.00;99.90
18839;DHT22;9548;56.920;14.804;2022-09-09T05:11:15;14.00;99.90
18839;DHT22;9548;56.920;14.804;2022-09-09T05:13:43;14.00;99.90
18839;DHT22;9548;56.920;14.804;2022-09-09T05:16:10;14.00;99.90
18839;DHT22;9548;56.920;14.804;2022-09-09T05:18:37;14.00;99.90
18839;DHT22;9548;56.920;14.804;2022-09-09T05:21:06;14.00;99.90
18839;DHT22;9548;56.920;14.804;2022-09-09T05:23:33;14.00;99.90
18839;DHT22;9548;56.920;14.804;2022-09-09T05:26:01;14.00;99.90
18839;DHT22;9548;56.920;14.804;2022-09-09T05:28:28;14.10;99.90
18839;DHT22;9548;56.920;14.804;2022-09-09T05:30:57;14.10;99.90
18839;DHT22;9548;56.920;14.804;2022-09-09T05:33:24;14.10;99.90
18839;DHT22;9548;56.920;14.804;2022-09-09T05:36:03;14.10;99.90
18839;DHT22;9548;56.920;14.804;2022-09-09T05:38:32;14.20;99.90
18839;DHT22;9548;56.920;14.804;2022-09-09T05:41:00;14.20;99.90
18839;DHT22;9548;56.920;14.804;2022-09-09T05:43:28;14.30;99.90
18839;DHT22;9548;56.920;14.804;2022-09-09T05:46:02;14.30;99.90
18839;DHT22;9548;56.920;14.804;2022-09-09T05:48:31;14.30;99.90
18839;DHT22;9548;56.920;14.804;2022-09-09T05:50:59;14.40;99.90
18839;DHT22;9548;56.920;14.804;2022-09-09T05:53:26;14.40;99.90
18839;DHT22;9548;56.920;14.804;2022-09-09T05:56:02;14.40;99.90
18839;DHT22;9548;56.920;14.804;2022-09-09T05:58:30;14.50;99.90
18839;DHT22;9548;56.920;14.804;2022-09-09T06:01:01;14.50;99.90
18839;DHT22;9548;56.920;14.804;2022-09-09T06:03:28;14.50;99.90
18839;DHT22;9548;56.920;14.804;2022-09-09T06:05:59;14.60;99.90
18839;DHT22;9548;56.920;14.804;2022-09-09T06:08:27;14.60;99.90
18839;DHT22;9548;56.920;14.804;2022-09-09T06:11:00;14.70;99.90
18839;DHT22;9548;56.920;14.804;2022-09-09T06:13:29;14.70;99.90
18839;DHT22;9548;56.920;14.804;2022-09-09T06:15:57;14.80;99.90
18839;DHT22;9548;56.920;14.804;2022-09-09T06:18:24;14.90;99.90
18839;DHT22;9548;56.920;14.804;2022-09-09T06:20:55;14.90;99.90
18839;DHT22;9548;56.920;14.804;2022-09-09T06:23:22;15.00;99.90
18839;DHT22;9548;56.920;14.804;2022-09-09T06:25:50;15.10;99.90
18839;DHT22;9548;56.920;14.804;2022-09-09T06:28:17;15.10;99.90
18839;DHT22;9548;56.920;14.804;2022-09-09T06:30:46;15.10;99.90
18839;DHT22;9548;56.920;14.804;2022-09-09T06:33:12;15.10;99.90
18839;DHT22;9548;56.920;14.804;2022-09-09T06:35:40;15.20;99.90
18839;DHT22;9548;56.920;14.804;2022-09-09T06:38:07;15.30;99.90
18839;DHT22;9548;56.920;14.804;2022-09-09T06:40:34;15.40;99.90
18839;DHT22;9548;56.920;14.804;2022-09-09T06:43:01;15.40;99.90
18839;DHT22;9548;56.920;14.804;2022-09-09T06:45:28;15.50;99.90
18839;DHT22;9548;56.920;14.804;2022-09-09T06:47:56;15.50;99.90
18839;DHT22;9548;56.920;14.804;2022-09-09T06:50:23;15.40;99.90
18839;DHT22;9548;56.920;14.804;2022-09-09T06:52:50;15.40;99.90
18839;DHT22;9548;56.920;14.804;2022-09-09T06:55:17;15.40;99.90
18839;DHT22;9548;56.920;14.804;2022-09-09T06:57:45;15.30;99.90
18839;DHT22;9548;56.920;14.804;2022-09-09T07:00:12;15.30;99.90
18839;DHT22;9548;56.920;14.804;2022-09-09T07:02:40;15.30;99.90
18839;DHT22;9548;56.920;14.804;2022-09-09T07:05:08;15.30;99.90
18839;DHT22;9548;56.920;14.804;2022-09-09T07:07:36;15.30;99.90
18839;DHT22;9548;56.920;14.804;2022-09-09T07:10:04;15.30;99.90
18839;DHT22;9548;56.920;14.804;2022-09-09T07:12:31;15.30;99.90
18839;DHT22;9548;56.920;14.804;2022-09-09T07:14:57;15.40;99.90
18839;DHT22;9548;56.920;14.804;2022-09-09T07:17:24;15.40;99.90
18839;DHT22;9548;56.920;14.804;2022-09-09T07:19:51;15.40;99.90
18839;DHT22;9548;56.920;14.804;2022-09-09T07:22:20;15.40;99.90
18839;DHT22;9548;56.920;14.804;2022-09-09T07:24:47;15.50;99.90
18839;DHT22;9548;56.920;14.804;2022-09-09T07:27:15;15.60;99.90
18839;DHT22;9548;56.920;14.804;2022-09-09T07:29:42;15.70;99.90
18839;DHT22;9548;56.920;14.804;2022-09-09T07:32:08;15.80;99.90
18839;DHT22;9548;56.920;14.804;2022-09-09T07:34:35;15.80;99.90
18839;DHT22;9548;56.920;14.804;2022-09-09T07:37:02;15.80;99.90
18839;DHT22;9548;56.920;14.804;2022-09-09T07:39:31;15.80;99.90
18839;DHT22;9548;56.920;14.804;2022-09-09T07:41:58;15.70;99.90
18839;DHT22;9548;56.920;14.804;2022-09-09T07:44:25;15.70;99.90
18839;DHT22;9548;56.920;14.804;2022-09-09T07:46:52;15.70;99.90
18839;DHT22;9548;56.920;14.804;2022-09-09T07:49:19;15.70;99.90
18839;DHT22;9548;56.920;14.804;2022-09-09T07:51:47;15.70;99.90
18839;DHT22;9548;56.920;14.804;2022-09-09T07:54:16;15.80;99.90
18839;DHT22;9548;56.920;14.804;2022-09-09T07:56:47;15.80;99.90
18839;DHT22;9548;56.920;14.804;2022-09-09T07:59:15;15.70;99.90
18839;DHT22;9548;56.920;14.804;2022-09-09T08:01:44;15.60;99.90
18839;DHT22;9548;56.920;14.804;2022-09-09T08:04:13;15.60;99.90
18839;DHT22;9548;56.920;14.804;2022-09-09T08:06:44;15.60;99.90
18839;DHT22;9548;56.920;14.804;2022-09-09T08:09:12;15.60;99.90
18839;DHT22;9548;56.920;14.804;2022-09-09T08:11:40;15.70;99.90
18839;DHT22;9548;56.920;14.804;2022-09-09T08:14:10;15.70;99.90
18839;DHT22;9548;56.920;14.804;2022-09-09T08:16:38;15.70;99.90
18839;DHT22;9548;56.920;14.804;2022-09-09T08:19:05;15.80;99.90
18839;DHT22;9548;56.920;14.804;2022-09-09T08:21:34;15.80;99.90
18839;DHT22;9548;56.920;14.804;2022-09-09T08:24:03;15.70;99.90
18839;DHT22;9548;56.920;14.804;2022-09-09T08:26:32;15.70;99.90
18839;DHT22;9548;56.920;14.804;2022-09-09T08:29:00;15.70;99.90
18839;DHT22;9548;56.920;14.804;2022-09-09T08:31:31;15.60;99.90
18839;DHT22;9548;56.920;14.804;2022-09-09T08:33:59;15.60;99.90
18839;DHT22;9548;56.920;14.804;2022-09-09T08:36:29;15.60;99.90
18839;DHT22;9548;56.920;14.804;2022-09-09T08:38:57;15.60;99.90
18839;DHT22;9548;56.920;14.804;2022-09-09T08:41:57;15.60;99.90
18839;DHT22;9548;56.920;14.804;2022-09-09T08:44:36;15.50;99.90
18839;DHT22;9548;56.920;14.804;2022-09-09T08:47:17;15.50;99.90
18839;DHT22;9548;56.920;14.804;2022-09-09T08:49:59;15.50;99.90
18839;DHT22;9548;56.920;14.804;2022-09-09T08:52:31;15.50;99.90
18839;DHT22;9548;56.920;14.804;2022-09-09T08:55:05;15.40;99.90
18839;DHT22;9548;56.920;14.804;2022-09-09T08:57:39;15.40;99.90
18839;DHT22;9548;56.920;14.804;2022-09-09T09:00:09;15.20;99.90
18839;DHT22;9548;56.920;14.804;2022-09-09T09:02:45;15.20;99.90
18839;DHT22;9548;56.920;14.804;2022-09-09T09:05:19;15.10;99.90
18839;DHT22;9548;56.920;14.804;2022-09-09T09:07:59;15.00;99.90
18839;DHT22;9548;56.920;14.804;2022-09-09T09:10:44;15.00;99.90
18839;DHT22;9548;56.920;14.804;2022-09-09T09:13:15;15.00;99.90
18839;DHT22;9548;56.920;14.804;2022-09-09T09:15:45;15.00;99.90
18839;DHT22;9548;56.920;14.804;2022-09-09T09:18:16;14.90;99.90
18839;DHT22;9548;56.920;14.804;2022-09-09T09:20:50;14.90;99.90
18839;DHT22;9548;56.920;14.804;2022-09-09T09:23:23;14.90;99.90
18839;DHT22;9548;56.920;14.804;2022-09-09T09:25:53;14.90;99.90
18839;DHT22;9548;56.920;14.804;2022-09-09T09:28:24;14.90;99.90
18839;DHT22;9548;56.920;14.804;2022-09-09T09:30:55;14.90;99.90
18839;DHT22;9548;56.920;14.804;2022-09-09T09:33:27;14.90;99.90
18839;DHT22;9548;56.920;14.804;2022-09-09T09:35:57;14.90;99.90
18839;DHT22;9548;56.920;14.804;2022-09-09T09:38:27;14.90;99.90
18839;DHT22;9548;56.920;14.804;2022-09-09T09:40:55;14.80;99.90
18839;DHT22;9548;56.920;14.804;2022-09-09T09:43:26;14.80;99.90
18839;DHT22;9548;56.920;14.804;2022-09-09T09:45:54;14.90;99.90
18839;DHT22;9548;56.920;14.804;2022-09-09T09:48:21;14.90;99.90
18839;DHT22;9548;56.920;14.804;2022-09-09T09:50:51;14.90;99.90
18839;DHT22;9548;56.920;14.804;2022-09-09T09:53:22;14.90;99.90
18839;DHT22;9548;56.920;14.804;2022-09-09T09:55:54;14.80;99.90
18839;DHT22;9548;56.920;14.804;2022-09-09T09:58:21;14.80;99.90
18839;DHT22;9548;56.920;14.804;2022-09-09T10:00:49;14.70;99.90
18839;DHT22;9548;56.920;14.804;2022-09-09T10:03:24;14.60;99.90
18839;DHT22;9548;56.920;14.804;2022-09-09T10:05:53;14.60;99.90
18839;DHT22;9548;56.920;14.804;2022-09-09T10:08:22;14.50;99.90
18839;DHT22;9548;56.920;14.804;2022-09-09T10:11:05;14.60;99.90
18839;DHT22;9548;56.920;14.804;2022-09-09T10:13:39;14.50;99.90
18839;DHT22;9548;56.920;14.804;2022-09-09T10:16:30;14.50;99.90
18839;DHT22;9548;56.920;14.804;2022-09-09T10:19:00;14.40;99.90
18839;DHT22;9548;56.920;14.804;2022-09-09T10:21:42;14.40;99.90
18839;DHT22;9548;56.920;14.804;2022-09-09T10:24:30;14.40;99.90
18839;DHT22;9548;56.920;14.804;2022-09-09T10:27:08;14.40;99.90
18839;DHT22;9548;56.920;14.804;2022-09-09T10:30:03;14.30;99.90
18839;DHT22;9548;56.920;14.804;2022-09-09T10:32:44;14.20;99.90
18839;DHT22;9548;56.920;14.804;2022-09-09T10:35:19;14.20;99.90
18839;DHT22;9548;56.920;14.804;2022-09-09T10:38:13;14.30;99.90
18839;DHT22;9548;56.920;14.804;2022-09-09T10:40:49;14.20;99.90
18839;DHT22;9548;56.920;14.804;2022-09-09T10:43:39;14.20;99.90
18839;DHT22;9548;56.920;14.804;2022-09-09T10:46:14;14.20;99.90
18839;DHT22;9548;56.920;14.804;2022-09-09T10:49:08;14.10;99.90
18839;DHT22;9548;56.920;14.804;2022-09-09T10:51:48;14.20;99.90
18839;DHT22;9548;56.920;14.804;2022-09-09T10:54:30;14.10;99.90
18839;DHT22;9548;56.920;14.804;2022-09-09T10:57:03;14.10;99.90
18839;DHT22;9548;56.920;14.804;2022-09-09T10:59:35;14.10;99.90
18839;DHT22;9548;56.920;14.804;2022-09-09T11:02:12;14.10;99.90
18839;DHT22;9548;56.920;14.804;2022-09-09T11:04:45;14.10;99.90
18839;DHT22;9548;56.920;14.804;2022-09-09T11:07:28;14.10;99.90
18839;DHT22;9548;56.920;14.804;2022-09-09T11:10:01;14.10;99.90
18839;DHT22;9548;56.920;14.804;2022-09-09T11:12:30;14.10;99.90
18839;DHT22;9548;56.920;14.804;2022-09-09T11:15:01;14.20;99.90
18839;DHT22;9548;56.920;14.804;2022-09-09T11:17:35;14.20;99.90
18839;DHT22;9548;56.920;14.804;2022-09-09T11:20:06;14.30;99.90
18839;DHT22;9548;56.920;14.804;2022-09-09T11:22:39;14.20;99.90
18839;DHT22;9548;56.920;14.804;2022-09-09T11:25:16;14.20;99.90
18839;DHT22;9548;56.920;14.804;2022-09-09T11:27:55;14.20;99.90
18839;DHT22;9548;56.920;14.804;2022-09-09T11:30:28;14.20;99.90
18839;DHT22;9548;56.920;14.804;2022-09-09T11:33:25;14.20;99.90
18839;DHT22;9548;56.920;14.804;2022-09-09T11:36:16;14.20;99.90
18839;DHT22;9548;56.920;14.804;2022-09-09T11:38:49;14.10;99.90
18839;DHT22;9548;56.920;14.804;2022-09-09T11:41:19;14.20;99.90
18839;DHT22;9548;56.920;14.804;2022-09-09T11:43:49;14.20;99.90
18839;DHT22;9548;56.920;14.804;2022-09-09T11:46:19;14.20;99.90
18839;DHT22;9548;56.920;14.804;2022-09-09T11:48:58;14.20;99.90
18839;DHT22;9548;56.920;14.804;2022-09-09T11:51:27;14.20;99.90
18839;DHT22;9548;56.920;14.804;2022-09-09T11:53:56;14.20;99.90
18839;DHT22;9548;56.920;14.804;2022-09-09T11:56:27;14.20;99.90
18839;DHT22;9548;56.920;14.804;2022-09-09T11:58:57;14.20;99.90
18839;DHT22;9548;56.920;14.804;2022-09-09T12:01:34;14.20;99.90
18839;DHT22;9548;56.920;14.804;2022-09-09T12:04:17;14.30;99.90
18839;DHT22;9548;56.920;14.804;2022-09-09T12:06:51;14.30;99.90
18839;DHT22;9548;56.920;14.804;2022-09-09T12:09:23;14.40;99.90
18839;DHT22;9548;56.920;14.804;2022-09-09T12:12:05;14.50;99.90
18839;DHT22;9548;56.920;14.804;2022-09-09T12:14:36;14.60;99.90
18839;DHT22;9548;56.920;14.804;2022-09-09T12:17:17;14.60;99.90
18839;DHT22;9548;56.920;14.804;2022-09-09T12:19:46;14.60;99.90
18839;DHT22;9548;56.920;14.804;2022-09-09T12:22:20;14.70;99.90
18839;DHT22;9548;56.920;14.804;2022-09-09T12:24:54;14.80;99.90
18839;DHT22;9548;56.920;14.804;2022-09-09T12:27:28;14.80;99.90
18839;DHT22;9548;56.920;14.804;2022-09-09T12:30:02;14.80;99.90
18839;DHT22;9548;56.920;14.804;2022-09-09T12:32:30;14.80;99.90
18839;DHT22;9548;56.920;14.804;2022-09-09T12:34:59;14.70;99.90
18839;DHT22;9548;56.920;14.804;2022-09-09T12:37:32;14.70;99.90
18839;DHT22;9548;56.920;14.804;2022-09-09T12:40:03;14.60;99.90
18839;DHT22;9548;56.920;14.804;2022-09-09T12:42:31;14.50;99.90
18839;DHT22;9548;56.920;14.804;2022-09-09T12:45:01;14.40;99.90
18839;DHT22;9548;56.920;14.804;2022-09-09T12:47:37;14.40;99.90
18839;DHT22;9548;56.920;14.804;2022-09-09T12:50:15;14.40;99.90
18839;DHT22;9548;56.920;14.804;2022-09-09T12:52:42;14.40;99.90
18839;DHT22;9548;56.920;14.804;2022-09-09T12:55:18;14.40;99.90
18839;DHT22;9548;56.920;14.804;2022-09-09T12:57:49;14.40;99.90
18839;DHT22;9548;56.920;14.804;2022-09-09T13:00:19;14.40;99.90
18839;DHT22;9548;56.920;14.804;2022-09-09T13:02:48;14.30;99.90
18839;DHT22;9548;56.920;14.804;2022-09-09T13:05:19;14.30;99.90
18839;DHT22;9548;56.920;14.804;2022-09-09T13:07:47;14.30;99.90
18839;DHT22;9548;56.920;14.804;2022-09-09T13:10:16;14.30;99.90
18839;DHT22;9548;56.920;14.804;2022-09-09T13:12:48;14.20;99.90
18839;DHT22;9548;56.920;14.804;2022-09-09T13:15:21;14.20;99.90
18839;DHT22;9548;56.920;14.804;2022-09-09T13:17:51;14.20;99.90
18839;DHT22;9548;56.920;14.804;2022-09-09T13:20:20;14.20;99.90
18839;DHT22;9548;56.920;14.804;2022-09-09T13:22:48;14.20;99.90
18839;DHT22;9548;56.920;14.804;2022-09-09T13:25:21;14.20;99.90
18839;DHT22;9548;56.920;14.804;2022-09-09T13:28:01;14.20;99.90
18839;DHT22;9548;56.920;14.804;2022-09-09T13:30:30;14.20;99.90
18839;DHT22;9548;56.920;14.804;2022-09-09T13:33:18;14.20;99.90
18839;DHT22;9548;56.920;14.804;2022-09-09T13:35:50;14.10;99.90
18839;DHT22;9548;56.920;14.804;2022-09-09T13:38:18;14.10;99.90
18839;DHT22;9548;56.920;14.804;2022-09-09T13:40:56;14.10;99.90
18839;DHT22;9548;56.920;14.804;2022-09-09T13:43:26;14.10;99.90
18839;DHT22;9548;56.920;14.804;2022-09-09T13:45:55;14.10;99.90
18839;DHT22;9548;56.920;14.804;2022-09-09T13:48:24;14.10;99.90
18839;DHT22;9548;56.920;14.804;2022-09-09T13:50:59;14.10;99.90
18839;DHT22;9548;56.920;14.804;2022-09-09T13:53:26;14.00;99.90
18839;DHT22;9548;56.920;14.804;2022-09-09T13:55:53;14.00;99.90
18839;DHT22;9548;56.920;14.804;2022-09-09T13:58:20;14.00;99.90
18839;DHT22;9548;56.920;14.804;2022-09-09T14:00:49;14.00;99.90
18839;DHT22;9548;56.920;14.804;2022-09-09T14:03:16;14.00;99.90
18839;DHT22;9548;56.920;14.804;2022-09-09T14:05:44;14.00;99.90
18839;DHT22;9548;56.920;14.804;2022-09-09T14:08:20;14.00;99.90
18839;DHT22;9548;56.920;14.804;2022-09-09T14:10:48;13.90;99.90
18839;DHT22;9548;56.920;14.804;2022-09-09T14:13:15;13.90;99.90
18839;DHT22;9548;56.920;14.804;2022-09-09T14:15:42;13.90;99.90
18839;DHT22;9548;56.920;14.804;2022-09-09T14:18:11;13.90;99.90
18839;DHT22;9548;56.920;14.804;2022-09-09T14:20:39;13.90;99.90
18839;DHT22;9548;56.920;14.804;2022-09-09T14:23:10;13.80;99.90
18839;DHT22;9548;56.920;14.804;2022-09-09T14:25:40;13.80;99.90
18839;DHT22;9548;56.920;14.804;2022-09-09T14:28:09;13.90;99.90
18839;DHT22;9548;56.920;14.804;2022-09-09T14:30:38;13.90;99.90
18839;DHT22;9548;56.920;14.804;2022-09-09T14:33:06;13.90;99.90
18839;DHT22;9548;56.920;14.804;2022-09-09T14:35:35;13.90;99.90
18839;DHT22;9548;56.920;14.804;2022-09-09T14:38:03;13.90;99.90
18839;DHT22;9548;56.920;14.804;2022-09-09T14:40:30;13.80;99.90
18839;DHT22;9548;56.920;14.804;2022-09-09T14:42:57;13.80;99.90
18839;DHT22;9548;56.920;14.804;2022-09-09T14:45:25;13.80;99.90
18839;DHT22;9548;56.920;14.804;2022-09-09T14:47:52;13.80;99.90
18839;DHT22;9548;56.920;14.804;2022-09-09T14:50:19;13.80;99.90
18839;DHT22;9548;56.920;14.804;2022-09-09T14:52:47;13.90;99.90
18839;DHT22;9548;56.920;14.804;2022-09-09T14:55:16;13.80;99.90
18839;DHT22;9548;56.920;14.804;2022-09-09T14:57:43;13.80;99.90
18839;DHT22;9548;56.920;14.804;2022-09-09T15:00:11;13.80;99.90
18839;DHT22;9548;56.920;14.804;2022-09-09T15:02:38;13.80;99.90
18839;DHT22;9548;56.920;14.804;2022-09-09T15:05:06;13.70;99.90
18839;DHT22;9548;56.920;14.804;2022-09-09T15:07:33;13.80;99.90
18839;DHT22;9548;56.920;14.804;2022-09-09T15:10:03;13.80;99.90
18839;DHT22;9548;56.920;14.804;2022-09-09T15:12:30;13.80;99.90
18839;DHT22;9548;56.920;14.804;2022-09-09T15:14:57;13.80;99.90
18839;DHT22;9548;56.920;14.804;2022-09-09T15:17:24;13.80;99.90
18839;DHT22;9548;56.920;14.804;2022-09-09T15:19:53;13.80;99.90
18839;DHT22;9548;56.920;14.804;2022-09-09T15:22:20;13.70;99.90
18839;DHT22;9548;56.920;14.804;2022-09-09T15:24:47;13.70;99.90
18839;DHT22;9548;56.920;14.804;2022-09-09T15:27:16;13.70;99.90
18839;DHT22;9548;56.920;14.804;2022-09-09T15:29:43;13.70;99.90
18839;DHT22;9548;56.920;14.804;2022-09-09T15:32:10;13.70;99.90
18839;DHT22;9548;56.920;14.804;2022-09-09T15:34:37;13.70;99.90
18839;DHT22;9548;56.920;14.804;2022-09-09T15:37:05;13.70;99.90
18839;DHT22;9548;56.920;14.804;2022-09-09T15:39:33;13.70;99.90
18839;DHT22;9548;56.920;14.804;2022-09-09T15:41:59;13.80;99.90
18839;DHT22;9548;56.920;14.804;2022-09-09T15:44:28;13.80;99.90
18839;DHT22;9548;56.920;14.804;2022-09-09T15:46:55;13.80;99.90
18839;DHT22;9548;56.920;14.804;2022-09-09T15:49:23;13.80;99.90
18839;DHT22;9548;56.920;14.804;2022-09-09T15:51:52;13.70;99.90
18839;DHT22;9548;56.920;14.804;2022-09-09T15:54:20;13.70;99.90